sensor_id;sensor_type;location;lat;lon;timestamp;P1;durP1;ratioP1;P2;durP2;ratioP2
37164;SDS011;23057;48.554;14.454;2024-03-06T00:00:07;9.93;;;5.57;;
37164;SDS011;23057;48.554;14.454;2024-03-06T00:02:39;11.70;;;6.10;;
37164;SDS011;23057;48.554;14.454;2024-03-06T00:05:09;10.65;;;5.72;;
37164;SDS011;23057;48.554;14.454;2024-03-06T00:07:40;12.73;;;5.78;;
37164;SDS011;23057;48.554;14.454;2024-03-06T00:10:11;10.68;;;6.88;;
37164;SDS011;23057;48.554;14.454;2024-03-06T00:12:42;9.73;;;5.60;;
37164;SDS011;23057;48.554;14.454;2024-03-06T00:15:13;10.45;;;5.47;;
37164;SDS011;23057;48.554;14.454;2024-03-06T00:17:44;8.90;;;5.68;;
37164;SDS011;23057;48.554;14.454;2024-03-06T00:20:15;8.63;;;5.38;;
37164;SDS011;23057;48.554;14.454;2024-03-06T00:22:45;9.57;;;5.38;;
37164;SDS011;23057;48.554;14.454;2024-03-06T00:25:17;9.25;;;5.43;;
37164;SDS011;23057;48.554;14.454;2024-03-06T00:27:47;11.23;;;5.85;;
37164;SDS011;23057;48.554;14.454;2024-03-06T00:30:18;12.25;;;5.28;;
37164;SDS011;23057;48.554;14.454;2024-03-06T00:32:49;10.13;;;5.35;;
37164;SDS011;23057;48.554;14.454;2024-03-06T00:35:20;11.77;;;5.57;;
37164;SDS011;23057;48.554;14.454;2024-03-06T00:37:51;10.65;;;5.20;;
37164;SDS011;23057;48.554;14.454;2024-03-06T00:40:23;13.30;;;5.32;;
37164;SDS011;23057;48.554;14.454;2024-03-06T00:42:54;10.98;;;5.30;;
37164;SDS011;23057;48.554;14.454;2024-03-06T00:45:24;11.18;;;4.85;;
37164;SDS011;23057;48.554;14.454;2024-03-06T00:47:55;10.15;;;5.63;;
37164;SDS011;23057;48.554;14.454;2024-03-06T00:50:26;11.15;;;5.97;;
37164;SDS011;23057;48.554;14.454;2024-03-06T00:52:57;10.27;;;6.15;;
37164;SDS011;23057;48.554;14.454;2024-03-06T00:55:28;12.10;;;5.90;;
37164;SDS011;23057;48.554;14.454;2024-03-06T00:57:59;14.52;;;6.72;;
37164;SDS011;23057;48.554;14.454;2024-03-06T01:00:30;10.60;;;6.38;;
37164;SDS011;23057;48.554;14.454;2024-03-06T01:03:01;12.27;;;6.05;;
37164;SDS011;23057;48.554;14.454;2024-03-06T01:05:32;11.43;;;6.28;;
37164;SDS011;23057;48.554;14.454;2024-03-06T01:08:03;9.13;;;5.60;;
37164;SDS011;23057;48.554;14.454;2024-03-06T01:10:34;19.98;;;8.57;;
37164;SDS011;23057;48.554;14.454;2024-03-06T01:13:05;36.15;;;11.10;;
37164;SDS011;23057;48.554;14.454;2024-03-06T01:15:36;29.58;;;10.27;;
37164;SDS011;23057;48.554;14.454;2024-03-06T01:18:08;23.30;;;8.95;;
37164;SDS011;23057;48.554;14.454;2024-03-06T01:20:39;21.65;;;10.20;;
37164;SDS011;23057;48.554;14.454;2024-03-06T01:23:10;18.88;;;8.43;;
37164;SDS011;23057;48.554;14.454;2024-03-06T01:25:41;16.88;;;8.52;;
37164;SDS011;23057;48.554;14.454;2024-03-06T01:28:12;35.13;;;9.90;;
37164;SDS011;23057;48.554;14.454;2024-03-06T01:30:42;34.42;;;9.75;;
37164;SDS011;23057;48.554;14.454;2024-03-06T01:33:13;22.60;;;8.93;;
37164;SDS011;23057;48.554;14.454;2024-03-06T01:35:44;23.08;;;9.38;;
37164;SDS011;23057;48.554;14.454;2024-03-06T01:38:15;16.63;;;7.65;;
37164;SDS011;23057;48.554;14.454;2024-03-06T01:40:47;20.55;;;7.88;;
37164;SDS011;23057;48.554;14.454;2024-03-06T01:43:21;17.90;;;8.13;;
37164;SDS011;23057;48.554;14.454;2024-03-06T01:45:56;17.40;;;7.30;;
37164;SDS011;23057;48.554;14.454;2024-03-06T01:48:27;24.00;;;8.90;;
37164;SDS011;23057;48.554;14.454;2024-03-06T01:51:01;19.80;;;7.82;;
37164;SDS011;23057;48.554;14.454;2024-03-06T01:53:35;17.58;;;8.50;;
37164;SDS011;23057;48.554;14.454;2024-03-06T01:56:07;16.75;;;7.95;;
37164;SDS011;23057;48.554;14.454;2024-03-06T01:58:41;17.90;;;8.02;;
37164;SDS011;23057;48.554;14.454;2024-03-06T02:01:12;19.67;;;7.78;;
37164;SDS011;23057;48.554;14.454;2024-03-06T02:03:46;21.35;;;9.18;;
37164;SDS011;23057;48.554;14.454;2024-03-06T02:06:18;16.80;;;8.60;;
37164;SDS011;23057;48.554;14.454;2024-03-06T02:08:49;23.95;;;9.88;;
37164;SDS011;23057;48.554;14.454;2024-03-06T02:11:21;24.80;;;8.93;;
37164;SDS011;23057;48.554;14.454;2024-03-06T02:13:52;30.75;;;10.10;;
37164;SDS011;23057;48.554;14.454;2024-03-06T02:16:23;18.67;;;7.75;;
37164;SDS011;23057;48.554;14.454;2024-03-06T02:18:54;26.67;;;11.40;;
37164;SDS011;23057;48.554;14.454;2024-03-06T02:21:30;16.13;;;8.07;;
37164;SDS011;23057;48.554;14.454;2024-03-06T02:24:01;18.42;;;8.40;;
37164;SDS011;23057;48.554;14.454;2024-03-06T02:26:32;11.18;;;6.75;;
37164;SDS011;23057;48.554;14.454;2024-03-06T02:29:03;11.07;;;6.47;;
37164;SDS011;23057;48.554;14.454;2024-03-06T02:31:35;12.73;;;7.03;;
37164;SDS011;23057;48.554;14.454;2024-03-06T02:34:06;11.40;;;5.78;;
37164;SDS011;23057;48.554;14.454;2024-03-06T02:36:37;13.18;;;5.88;;
37164;SDS011;23057;48.554;14.454;2024-03-06T02:39:08;17.60;;;6.72;;
37164;SDS011;23057;48.554;14.454;2024-03-06T02:41:39;14.70;;;5.93;;
37164;SDS011;23057;48.554;14.454;2024-03-06T02:44:10;14.80;;;6.93;;
37164;SDS011;23057;48.554;14.454;2024-03-06T02:46:41;15.77;;;7.60;;
37164;SDS011;23057;48.554;14.454;2024-03-06T02:49:11;12.10;;;6.15;;
37164;SDS011;23057;48.554;14.454;2024-03-06T02:51:42;11.55;;;6.30;;
37164;SDS011;23057;48.554;14.454;2024-03-06T02:54:13;10.25;;;5.63;;
37164;SDS011;23057;48.554;14.454;2024-03-06T02:56:44;8.77;;;4.40;;
37164;SDS011;23057;48.554;14.454;2024-03-06T02:59:15;8.90;;;4.65;;
37164;SDS011;23057;48.554;14.454;2024-03-06T03:01:46;7.10;;;4.75;;
37164;SDS011;23057;48.554;14.454;2024-03-06T03:04:18;13.50;;;4.95;;
37164;SDS011;23057;48.554;14.454;2024-03-06T03:06:49;13.43;;;5.53;;
37164;SDS011;23057;48.554;14.454;2024-03-06T03:09:20;7.25;;;4.68;;
37164;SDS011;23057;48.554;14.454;2024-03-06T03:11:51;8.23;;;4.88;;
37164;SDS011;23057;48.554;14.454;2024-03-06T03:14:21;7.85;;;4.95;;
37164;SDS011;23057;48.554;14.454;2024-03-06T03:16:52;15.32;;;6.30;;
37164;SDS011;23057;48.554;14.454;2024-03-06T03:19:23;11.02;;;5.38;;
37164;SDS011;23057;48.554;14.454;2024-03-06T03:21:54;9.27;;;5.43;;
37164;SDS011;23057;48.554;14.454;2024-03-06T03:24:25;9.95;;;4.88;;
37164;SDS011;23057;48.554;14.454;2024-03-06T03:26:56;9.55;;;5.50;;
37164;SDS011;23057;48.554;14.454;2024-03-06T03:29:27;12.50;;;5.28;;
37164;SDS011;23057;48.554;14.454;2024-03-06T03:31:59;12.52;;;5.38;;
37164;SDS011;23057;48.554;14.454;2024-03-06T03:34:30;8.38;;;5.00;;
37164;SDS011;23057;48.554;14.454;2024-03-06T03:37:02;11.75;;;5.55;;
37164;SDS011;23057;48.554;14.454;2024-03-06T03:39:33;11.45;;;6.32;;
37164;SDS011;23057;48.554;14.454;2024-03-06T03:42:04;13.95;;;5.32;;
37164;SDS011;23057;48.554;14.454;2024-03-06T03:44:36;12.18;;;5.13;;
37164;SDS011;23057;48.554;14.454;2024-03-06T03:47:07;11.30;;;5.25;;
37164;SDS011;23057;48.554;14.454;2024-03-06T03:49:38;8.55;;;4.45;;
37164;SDS011;23057;48.554;14.454;2024-03-06T03:52:09;8.93;;;5.35;;
37164;SDS011;23057;48.554;14.454;2024-03-06T03:54:41;16.60;;;4.85;;
37164;SDS011;23057;48.554;14.454;2024-03-06T03:57:12;16.90;;;4.45;;
37164;SDS011;23057;48.554;14.454;2024-03-06T03:59:44;15.15;;;5.47;;
37164;SDS011;23057;48.554;14.454;2024-03-06T04:02:15;20.60;;;5.40;;
37164;SDS011;23057;48.554;14.454;2024-03-06T04:04:45;12.43;;;5.57;;
37164;SDS011;23057;48.554;14.454;2024-03-06T04:07:16;12.77;;;4.85;;
37164;SDS011;23057;48.554;14.454;2024-03-06T04:09:48;12.55;;;4.93;;
37164;SDS011;23057;48.554;14.454;2024-03-06T04:12:20;7.85;;;5.35;;
37164;SDS011;23057;48.554;14.454;2024-03-06T04:14:51;8.95;;;5.30;;
37164;SDS011;23057;48.554;14.454;2024-03-06T04:17:22;15.35;;;5.85;;
37164;SDS011;23057;48.554;14.454;2024-03-06T04:19:53;8.45;;;4.70;;
37164;SDS011;23057;48.554;14.454;2024-03-06T04:22:25;7.45;;;4.55;;
37164;SDS011;23057;48.554;14.454;2024-03-06T04:24:56;15.43;;;4.85;;
37164;SDS011;23057;48.554;14.454;2024-03-06T04:27:28;11.82;;;5.70;;
37164;SDS011;23057;48.554;14.454;2024-03-06T04:29:59;12.85;;;4.65;;
37164;SDS011;23057;48.554;14.454;2024-03-06T04:32:30;13.30;;;5.35;;
37164;SDS011;23057;48.554;14.454;2024-03-06T04:35:01;8.60;;;5.22;;
37164;SDS011;23057;48.554;14.454;2024-03-06T04:37:32;14.73;;;6.03;;
37164;SDS011;23057;48.554;14.454;2024-03-06T04:40:03;11.70;;;4.50;;
37164;SDS011;23057;48.554;14.454;2024-03-06T04:42:38;7.72;;;4.13;;
37164;SDS011;23057;48.554;14.454;2024-03-06T04:45:14;16.00;;;5.40;;
37164;SDS011;23057;48.554;14.454;2024-03-06T04:47:47;9.37;;;4.70;;
37164;SDS011;23057;48.554;14.454;2024-03-06T04:50:18;15.82;;;4.97;;
37164;SDS011;23057;48.554;14.454;2024-03-06T04:52:48;14.05;;;6.07;;
37164;SDS011;23057;48.554;14.454;2024-03-06T04:55:19;10.00;;;4.53;;
37164;SDS011;23057;48.554;14.454;2024-03-06T04:57:52;10.10;;;5.05;;
37164;SDS011;23057;48.554;14.454;2024-03-06T05:00:23;13.05;;;5.68;;
37164;SDS011;23057;48.554;14.454;2024-03-06T05:02:54;11.52;;;5.53;;
37164;SDS011;23057;48.554;14.454;2024-03-06T05:05:26;13.32;;;7.05;;
37164;SDS011;23057;48.554;14.454;2024-03-06T05:07:57;10.43;;;5.28;;
37164;SDS011;23057;48.554;14.454;2024-03-06T05:10:28;10.77;;;6.13;;
37164;SDS011;23057;48.554;14.454;2024-03-06T05:12:59;14.80;;;6.20;;
37164;SDS011;23057;48.554;14.454;2024-03-06T05:15:29;10.45;;;5.07;;
37164;SDS011;23057;48.554;14.454;2024-03-06T05:18:00;18.65;;;7.15;;
37164;SDS011;23057;48.554;14.454;2024-03-06T05:20:31;13.38;;;6.97;;
37164;SDS011;23057;48.554;14.454;2024-03-06T05:23:02;13.32;;;5.88;;
37164;SDS011;23057;48.554;14.454;2024-03-06T05:25:33;13.80;;;6.80;;
37164;SDS011;23057;48.554;14.454;2024-03-06T05:28:04;13.48;;;6.93;;
37164;SDS011;23057;48.554;14.454;2024-03-06T05:30:35;14.23;;;7.15;;
37164;SDS011;23057;48.554;14.454;2024-03-06T05:33:06;14.20;;;7.05;;
37164;SDS011;23057;48.554;14.454;2024-03-06T05:35:37;18.58;;;8.88;;
37164;SDS011;23057;48.554;14.454;2024-03-06T05:38:08;13.90;;;7.30;;
37164;SDS011;23057;48.554;14.454;2024-03-06T05:40:39;16.38;;;7.35;;
37164;SDS011;23057;48.554;14.454;2024-03-06T05:43:11;17.90;;;7.57;;
37164;SDS011;23057;48.554;14.454;2024-03-06T05:45:42;15.05;;;7.50;;
37164;SDS011;23057;48.554;14.454;2024-03-06T05:48:13;13.63;;;7.95;;
37164;SDS011;23057;48.554;14.454;2024-03-06T05:50:44;13.27;;;7.38;;
37164;SDS011;23057;48.554;14.454;2024-03-06T05:53:15;13.80;;;7.07;;
37164;SDS011;23057;48.554;14.454;2024-03-06T05:55:46;17.83;;;8.82;;
37164;SDS011;23057;48.554;14.454;2024-03-06T05:58:17;17.50;;;7.53;;
37164;SDS011;23057;48.554;14.454;2024-03-06T06:00:47;27.77;;;7.72;;
37164;SDS011;23057;48.554;14.454;2024-03-06T06:03:18;20.88;;;8.07;;
37164;SDS011;23057;48.554;14.454;2024-03-06T06:05:49;17.17;;;7.95;;
37164;SDS011;23057;48.554;14.454;2024-03-06T06:08:20;16.35;;;8.32;;
37164;SDS011;23057;48.554;14.454;2024-03-06T06:10:51;20.10;;;9.43;;
37164;SDS011;23057;48.554;14.454;2024-03-06T06:13:22;20.38;;;9.27;;
37164;SDS011;23057;48.554;14.454;2024-03-06T06:15:52;21.02;;;9.25;;
37164;SDS011;23057;48.554;14.454;2024-03-06T06:18:23;20.90;;;8.45;;
37164;SDS011;23057;48.554;14.454;2024-03-06T06:20:54;22.98;;;10.20;;
37164;SDS011;23057;48.554;14.454;2024-03-06T06:23:25;23.33;;;10.50;;
37164;SDS011;23057;48.554;14.454;2024-03-06T06:25:56;21.67;;;9.73;;
37164;SDS011;23057;48.554;14.454;2024-03-06T06:28:27;19.15;;;10.15;;
37164;SDS011;23057;48.554;14.454;2024-03-06T06:30:58;24.70;;;10.55;;
37164;SDS011;23057;48.554;14.454;2024-03-06T06:33:29;22.75;;;11.02;;
37164;SDS011;23057;48.554;14.454;2024-03-06T06:36:00;34.75;;;11.30;;
37164;SDS011;23057;48.554;14.454;2024-03-06T06:38:31;34.40;;;12.77;;
37164;SDS011;23057;48.554;14.454;2024-03-06T06:41:02;30.38;;;12.93;;
37164;SDS011;23057;48.554;14.454;2024-03-06T06:43:33;27.30;;;11.85;;
37164;SDS011;23057;48.554;14.454;2024-03-06T06:46:04;31.58;;;13.57;;
37164;SDS011;23057;48.554;14.454;2024-03-06T06:48:36;30.67;;;13.63;;
37164;SDS011;23057;48.554;14.454;2024-03-06T06:51:06;21.77;;;10.88;;
37164;SDS011;23057;48.554;14.454;2024-03-06T06:53:39;32.88;;;12.43;;
37164;SDS011;23057;48.554;14.454;2024-03-06T06:56:11;28.02;;;12.98;;
37164;SDS011;23057;48.554;14.454;2024-03-06T06:58:42;34.78;;;13.70;;
37164;SDS011;23057;48.554;14.454;2024-03-06T07:01:13;29.48;;;13.82;;
37164;SDS011;23057;48.554;14.454;2024-03-06T07:03:46;27.00;;;12.40;;
37164;SDS011;23057;48.554;14.454;2024-03-06T07:06:17;29.27;;;13.18;;
37164;SDS011;23057;48.554;14.454;2024-03-06T07:08:48;35.00;;;15.80;;
37164;SDS011;23057;48.554;14.454;2024-03-06T07:11:20;33.90;;;14.30;;
37164;SDS011;23057;48.554;14.454;2024-03-06T07:13:51;25.77;;;12.48;;
37164;SDS011;23057;48.554;14.454;2024-03-06T07:16:22;30.63;;;13.02;;
37164;SDS011;23057;48.554;14.454;2024-03-06T07:18:53;28.55;;;14.07;;
37164;SDS011;23057;48.554;14.454;2024-03-06T07:21:24;30.27;;;13.20;;
37164;SDS011;23057;48.554;14.454;2024-03-06T07:23:54;31.63;;;13.52;;
37164;SDS011;23057;48.554;14.454;2024-03-06T07:26:25;26.80;;;12.32;;
37164;SDS011;23057;48.554;14.454;2024-03-06T07:28:59;36.00;;;14.48;;
37164;SDS011;23057;48.554;14.454;2024-03-06T07:31:30;26.77;;;11.93;;
37164;SDS011;23057;48.554;14.454;2024-03-06T07:34:02;34.72;;;14.90;;
37164;SDS011;23057;48.554;14.454;2024-03-06T07:36:34;29.42;;;13.13;;
37164;SDS011;23057;48.554;14.454;2024-03-06T07:39:05;29.98;;;13.15;;
37164;SDS011;23057;48.554;14.454;2024-03-06T07:41:36;27.08;;;13.00;;
37164;SDS011;23057;48.554;14.454;2024-03-06T07:44:07;25.73;;;11.15;;
37164;SDS011;23057;48.554;14.454;2024-03-06T07:46:39;20.73;;;10.93;;
37164;SDS011;23057;48.554;14.454;2024-03-06T07:49:10;33.47;;;13.35;;
37164;SDS011;23057;48.554;14.454;2024-03-06T07:51:40;24.58;;;11.75;;
37164;SDS011;23057;48.554;14.454;2024-03-06T07:54:11;29.13;;;12.30;;
37164;SDS011;23057;48.554;14.454;2024-03-06T07:56:42;43.72;;;13.07;;
37164;SDS011;23057;48.554;14.454;2024-03-06T07:59:13;30.67;;;11.30;;
37164;SDS011;23057;48.554;14.454;2024-03-06T08:01:45;27.38;;;12.55;;
37164;SDS011;23057;48.554;14.454;2024-03-06T08:04:16;29.02;;;13.60;;
37164;SDS011;23057;48.554;14.454;2024-03-06T08:06:47;26.48;;;12.10;;
37164;SDS011;23057;48.554;14.454;2024-03-06T08:09:18;29.83;;;12.90;;
37164;SDS011;23057;48.554;14.454;2024-03-06T08:11:49;32.45;;;11.50;;
37164;SDS011;23057;48.554;14.454;2024-03-06T08:14:20;26.05;;;13.07;;
37164;SDS011;23057;48.554;14.454;2024-03-06T08:16:51;29.55;;;12.32;;
37164;SDS011;23057;48.554;14.454;2024-03-06T08:19:22;29.08;;;15.05;;
37164;SDS011;23057;48.554;14.454;2024-03-06T08:21:55;31.00;;;13.48;;
37164;SDS011;23057;48.554;14.454;2024-03-06T08:24:25;30.15;;;13.35;;
37164;SDS011;23057;48.554;14.454;2024-03-06T08:26:57;36.17;;;14.77;;
37164;SDS011;23057;48.554;14.454;2024-03-06T08:29:45;26.73;;;13.07;;
37164;SDS011;23057;48.554;14.454;2024-03-06T08:34:47;27.38;;;14.55;;
37164;SDS011;23057;48.554;14.454;2024-03-06T08:37:17;32.78;;;14.15;;
37164;SDS011;23057;48.554;14.454;2024-03-06T08:39:49;31.13;;;13.75;;
37164;SDS011;23057;48.554;14.454;2024-03-06T08:42:20;26.88;;;12.57;;
37164;SDS011;23057;48.554;14.454;2024-03-06T08:44:51;26.98;;;13.13;;
37164;SDS011;23057;48.554;14.454;2024-03-06T08:47:22;27.10;;;11.90;;
37164;SDS011;23057;48.554;14.454;2024-03-06T08:49:53;28.20;;;12.30;;
37164;SDS011;23057;48.554;14.454;2024-03-06T08:52:25;27.15;;;12.35;;
37164;SDS011;23057;48.554;14.454;2024-03-06T08:54:56;26.95;;;12.52;;
37164;SDS011;23057;48.554;14.454;2024-03-06T08:57:27;24.77;;;12.35;;
37164;SDS011;23057;48.554;14.454;2024-03-06T09:00:02;25.85;;;12.02;;
37164;SDS011;23057;48.554;14.454;2024-03-06T09:02:40;30.88;;;12.73;;
37164;SDS011;23057;48.554;14.454;2024-03-06T09:05:11;33.13;;;13.05;;
37164;SDS011;23057;48.554;14.454;2024-03-06T09:07:42;26.15;;;12.55;;
37164;SDS011;23057;48.554;14.454;2024-03-06T09:10:14;28.80;;;12.30;;
37164;SDS011;23057;48.554;14.454;2024-03-06T09:12:45;28.20;;;11.88;;
37164;SDS011;23057;48.554;14.454;2024-03-06T09:15:16;25.88;;;13.10;;
37164;SDS011;23057;48.554;14.454;2024-03-06T09:17:48;23.35;;;9.85;;
37164;SDS011;23057;48.554;14.454;2024-03-06T09:20:19;27.48;;;13.23;;
37164;SDS011;23057;48.554;14.454;2024-03-06T09:22:50;20.92;;;11.02;;
37164;SDS011;23057;48.554;14.454;2024-03-06T09:25:24;19.83;;;10.75;;
37164;SDS011;23057;48.554;14.454;2024-03-06T09:27:55;20.33;;;10.52;;
37164;SDS011;23057;48.554;14.454;2024-03-06T09:30:25;23.00;;;10.30;;
37164;SDS011;23057;48.554;14.454;2024-03-06T09:32:58;21.65;;;11.75;;
37164;SDS011;23057;48.554;14.454;2024-03-06T09:35:28;20.90;;;10.20;;
37164;SDS011;23057;48.554;14.454;2024-03-06T09:37:59;28.73;;;11.63;;
37164;SDS011;23057;48.554;14.454;2024-03-06T09:40:31;28.70;;;10.88;;
37164;SDS011;23057;48.554;14.454;2024-03-06T09:43:02;20.35;;;12.73;;
37164;SDS011;23057;48.554;14.454;2024-03-06T09:45:33;25.00;;;10.70;;
37164;SDS011;23057;48.554;14.454;2024-03-06T09:48:05;20.73;;;11.82;;
37164;SDS011;23057;48.554;14.454;2024-03-06T09:50:40;21.48;;;10.13;;
37164;SDS011;23057;48.554;14.454;2024-03-06T09:53:16;20.00;;;9.38;;
37164;SDS011;23057;48.554;14.454;2024-03-06T09:55:52;21.45;;;9.65;;
37164;SDS011;23057;48.554;14.454;2024-03-06T09:58:27;19.00;;;9.70;;
37164;SDS011;23057;48.554;14.454;2024-03-06T10:00:59;19.08;;;10.15;;
37164;SDS011;23057;48.554;14.454;2024-03-06T10:03:33;16.50;;;8.27;;
37164;SDS011;23057;48.554;14.454;2024-03-06T10:06:04;18.98;;;11.32;;
37164;SDS011;23057;48.554;14.454;2024-03-06T10:08:36;28.20;;;10.18;;
37164;SDS011;23057;48.554;14.454;2024-03-06T10:11:13;17.30;;;9.77;;
37164;SDS011;23057;48.554;14.454;2024-03-06T10:13:44;15.75;;;9.07;;
37164;SDS011;23057;48.554;14.454;2024-03-06T10:16:15;20.15;;;10.68;;
37164;SDS011;23057;48.554;14.454;2024-03-06T10:18:46;20.15;;;10.23;;
37164;SDS011;23057;48.554;14.454;2024-03-06T10:21:17;19.17;;;9.95;;
37164;SDS011;23057;48.554;14.454;2024-03-06T10:24:02;14.40;;;7.32;;
37164;SDS011;23057;48.554;14.454;2024-03-06T10:26:34;19.73;;;9.77;;
37164;SDS011;23057;48.554;14.454;2024-03-06T10:29:04;19.88;;;9.00;;
37164;SDS011;23057;48.554;14.454;2024-03-06T10:31:35;20.38;;;8.75;;
37164;SDS011;23057;48.554;14.454;2024-03-06T10:34:06;17.30;;;8.98;;
37164;SDS011;23057;48.554;14.454;2024-03-06T10:36:37;17.33;;;9.27;;
37164;SDS011;23057;48.554;14.454;2024-03-06T10:39:11;20.02;;;9.20;;
37164;SDS011;23057;48.554;14.454;2024-03-06T10:41:45;17.75;;;10.27;;
37164;SDS011;23057;48.554;14.454;2024-03-06T10:44:25;13.70;;;8.82;;
37164;SDS011;23057;48.554;14.454;2024-03-06T10:46:58;17.95;;;8.93;;
37164;SDS011;23057;48.554;14.454;2024-03-06T10:49:39;17.85;;;8.77;;
37164;SDS011;23057;48.554;14.454;2024-03-06T10:52:12;14.82;;;9.10;;
37164;SDS011;23057;48.554;14.454;2024-03-06T10:54:48;20.38;;;9.38;;
37164;SDS011;23057;48.554;14.454;2024-03-06T10:57:19;16.35;;;8.05;;
37164;SDS011;23057;48.554;14.454;2024-03-06T10:59:50;15.48;;;7.40;;
37164;SDS011;23057;48.554;14.454;2024-03-06T11:02:23;18.17;;;9.95;;
37164;SDS011;23057;48.554;14.454;2024-03-06T11:04:54;18.05;;;9.02;;
37164;SDS011;23057;48.554;14.454;2024-03-06T11:07:26;20.15;;;10.68;;
37164;SDS011;23057;48.554;14.454;2024-03-06T11:09:58;18.58;;;9.75;;
37164;SDS011;23057;48.554;14.454;2024-03-06T11:12:36;22.80;;;9.98;;
37164;SDS011;23057;48.554;14.454;2024-03-06T11:15:09;19.80;;;10.98;;
37164;SDS011;23057;48.554;14.454;2024-03-06T11:17:46;19.25;;;11.10;;
37164;SDS011;23057;48.554;14.454;2024-03-06T11:20:19;27.17;;;10.77;;
37164;SDS011;23057;48.554;14.454;2024-03-06T11:28:18;20.05;;;10.20;;
37164;SDS011;23057;48.554;14.454;2024-03-06T11:30:59;16.47;;;9.07;;
37164;SDS011;23057;48.554;14.454;2024-03-06T11:44:17;18.95;;;9.73;;
37164;SDS011;23057;48.554;14.454;2024-03-06T11:47:01;21.83;;;10.88;;
37164;SDS011;23057;48.554;14.454;2024-03-06T11:49:38;18.48;;;10.93;;
37164;SDS011;23057;48.554;14.454;2024-03-06T11:52:10;20.65;;;12.93;;
37164;SDS011;23057;48.554;14.454;2024-03-06T11:54:41;20.17;;;10.23;;
37164;SDS011;23057;48.554;14.454;2024-03-06T11:57:13;32.80;;;10.45;;
37164;SDS011;23057;48.554;14.454;2024-03-06T11:59:46;19.52;;;8.98;;
37164;SDS011;23057;48.554;14.454;2024-03-06T12:02:17;20.98;;;9.50;;
37164;SDS011;23057;48.554;14.454;2024-03-06T12:04:48;21.58;;;9.77;;
37164;SDS011;23057;48.554;14.454;2024-03-06T12:07:18;17.27;;;8.90;;
37164;SDS011;23057;48.554;14.454;2024-03-06T12:09:51;26.00;;;9.63;;
37164;SDS011;23057;48.554;14.454;2024-03-06T12:12:23;17.35;;;9.88;;
37164;SDS011;23057;48.554;14.454;2024-03-06T12:14:57;23.58;;;9.63;;
37164;SDS011;23057;48.554;14.454;2024-03-06T12:17:30;25.33;;;11.00;;
37164;SDS011;23057;48.554;14.454;2024-03-06T12:20:01;20.05;;;9.88;;
37164;SDS011;23057;48.554;14.454;2024-03-06T12:22:32;16.65;;;9.63;;
37164;SDS011;23057;48.554;14.454;2024-03-06T12:25:04;22.65;;;10.40;;
37164;SDS011;23057;48.554;14.454;2024-03-06T12:27:36;24.20;;;10.27;;
37164;SDS011;23057;48.554;14.454;2024-03-06T12:30:10;23.73;;;10.85;;
37164;SDS011;23057;48.554;14.454;2024-03-06T12:35:34;20.40;;;10.02;;
37164;SDS011;23057;48.554;14.454;2024-03-06T12:38:13;21.85;;;9.85;;
37164;SDS011;23057;48.554;14.454;2024-03-06T12:40:47;26.08;;;11.25;;
37164;SDS011;23057;48.554;14.454;2024-03-06T12:43:18;20.48;;;8.95;;
37164;SDS011;23057;48.554;14.454;2024-03-06T12:45:49;16.17;;;9.00;;
37164;SDS011;23057;48.554;14.454;2024-03-06T12:48:21;19.10;;;9.27;;
37164;SDS011;23057;48.554;14.454;2024-03-06T12:50:52;16.33;;;9.32;;
37164;SDS011;23057;48.554;14.454;2024-03-06T12:53:24;27.98;;;9.35;;
37164;SDS011;23057;48.554;14.454;2024-03-06T12:55:55;23.55;;;10.82;;
37164;SDS011;23057;48.554;14.454;2024-03-06T12:58:26;22.73;;;10.13;;
37164;SDS011;23057;48.554;14.454;2024-03-06T13:00:57;21.23;;;11.05;;
37164;SDS011;23057;48.554;14.454;2024-03-06T13:03:28;17.70;;;9.38;;
37164;SDS011;23057;48.554;14.454;2024-03-06T13:05:59;18.85;;;10.45;;
37164;SDS011;23057;48.554;14.454;2024-03-06T13:08:31;16.27;;;9.70;;
37164;SDS011;23057;48.554;14.454;2024-03-06T13:11:02;18.88;;;9.98;;
37164;SDS011;23057;48.554;14.454;2024-03-06T13:13:33;18.23;;;9.68;;
37164;SDS011;23057;48.554;14.454;2024-03-06T13:16:04;23.73;;;10.13;;
37164;SDS011;23057;48.554;14.454;2024-03-06T13:18:36;24.58;;;11.48;;
37164;SDS011;23057;48.554;14.454;2024-03-06T13:21:07;33.75;;;10.45;;
37164;SDS011;23057;48.554;14.454;2024-03-06T13:23:38;19.58;;;10.73;;
37164;SDS011;23057;48.554;14.454;2024-03-06T13:26:09;20.33;;;10.15;;
37164;SDS011;23057;48.554;14.454;2024-03-06T13:28:40;19.20;;;11.50;;
37164;SDS011;23057;48.554;14.454;2024-03-06T13:31:11;18.42;;;9.48;;
37164;SDS011;23057;48.554;14.454;2024-03-06T13:33:43;22.13;;;10.75;;
37164;SDS011;23057;48.554;14.454;2024-03-06T13:36:14;21.05;;;10.23;;
37164;SDS011;23057;48.554;14.454;2024-03-06T13:38:45;21.58;;;11.98;;
37164;SDS011;23057;48.554;14.454;2024-03-06T13:41:16;19.77;;;10.93;;
37164;SDS011;23057;48.554;14.454;2024-03-06T13:43:47;20.55;;;11.07;;
37164;SDS011;23057;48.554;14.454;2024-03-06T13:46:18;18.65;;;11.50;;
37164;SDS011;23057;48.554;14.454;2024-03-06T13:48:49;25.77;;;10.15;;
37164;SDS011;23057;48.554;14.454;2024-03-06T13:51:19;25.02;;;11.75;;
37164;SDS011;23057;48.554;14.454;2024-03-06T13:53:50;17.58;;;9.63;;
37164;SDS011;23057;48.554;14.454;2024-03-06T13:56:21;34.75;;;12.10;;
37164;SDS011;23057;48.554;14.454;2024-03-06T13:58:52;36.97;;;10.90;;
37164;SDS011;23057;48.554;14.454;2024-03-06T14:01:24;26.88;;;11.70;;
37164;SDS011;23057;48.554;14.454;2024-03-06T14:03:55;17.05;;;8.98;;
37164;SDS011;23057;48.554;14.454;2024-03-06T14:06:26;18.45;;;9.88;;
37164;SDS011;23057;48.554;14.454;2024-03-06T14:08:56;23.50;;;9.15;;
37164;SDS011;23057;48.554;14.454;2024-03-06T14:11:27;28.92;;;10.70;;
37164;SDS011;23057;48.554;14.454;2024-03-06T14:13:58;20.65;;;9.70;;
37164;SDS011;23057;48.554;14.454;2024-03-06T14:16:29;31.00;;;11.40;;
37164;SDS011;23057;48.554;14.454;2024-03-06T14:19:00;21.52;;;10.80;;
37164;SDS011;23057;48.554;14.454;2024-03-06T14:21:31;21.02;;;10.23;;
37164;SDS011;23057;48.554;14.454;2024-03-06T14:24:02;26.20;;;9.88;;
37164;SDS011;23057;48.554;14.454;2024-03-06T14:26:39;21.00;;;10.85;;
37164;SDS011;23057;48.554;14.454;2024-03-06T14:29:09;20.83;;;10.52;;
37164;SDS011;23057;48.554;14.454;2024-03-06T14:31:40;17.17;;;8.85;;
37164;SDS011;23057;48.554;14.454;2024-03-06T14:34:11;17.20;;;9.45;;
37164;SDS011;23057;48.554;14.454;2024-03-06T14:36:42;19.23;;;11.43;;
37164;SDS011;23057;48.554;14.454;2024-03-06T14:39:13;19.05;;;10.40;;
37164;SDS011;23057;48.554;14.454;2024-03-06T14:41:44;17.60;;;9.65;;
37164;SDS011;23057;48.554;14.454;2024-03-06T14:44:16;24.50;;;9.40;;
37164;SDS011;23057;48.554;14.454;2024-03-06T14:46:47;20.15;;;9.77;;
37164;SDS011;23057;48.554;14.454;2024-03-06T14:49:18;19.08;;;9.90;;
37164;SDS011;23057;48.554;14.454;2024-03-06T14:51:50;20.63;;;11.18;;
37164;SDS011;23057;48.554;14.454;2024-03-06T14:54:21;28.52;;;12.73;;
37164;SDS011;23057;48.554;14.454;2024-03-06T14:56:56;21.88;;;11.25;;
37164;SDS011;23057;48.554;14.454;2024-03-06T14:59:27;27.15;;;12.07;;
37164;SDS011;23057;48.554;14.454;2024-03-06T15:01:58;24.30;;;13.07;;
37164;SDS011;23057;48.554;14.454;2024-03-06T15:04:29;29.77;;;13.35;;